gordon.dewis.ca - Random musings from Gordon

Subscribe

Another look at the weather in London

December 15, 2010 @ 19:09 By: gordon Category: General, Weather

imageAbout 20 hours after I posted about London being hammered by lake effect snow, I took another look at the Exeter weather radar to see how they’re doing.

Well, it looks like the streamers are finally starting to dissipate, even though there’s still some snow showing on the radar.

Judging by the TAF…

TAF CYXU 152344Z 1600/1624 26012KT P6SM BKN040 TEMPO 1600/1603 5SM
-SHSN OVC020
FM161200 25010KT P6SM FEW015 BKN030 TEMPO 1612/1616 BKN015 OVC030
RMK NXT FCST BY 160600Z=

…it looks like they might finally be getting a break from the snow.

Now they just have to finish cleaning up all the cars that were stranded on Highway 402.

Leave a Reply

*